Time;durP1;ratioP1;P1;durP2;ratioP2;P2;SDS_P1;SDS_P2;PMS_P1;PMS_P2;Temp;Humidity;BMP_temperature;BMP_pressure;BME280_temperature;BME280_humidity;BME280_pressure;Samples;Min_cycle;Max_cycle;Signal;HPM_P1;HPM_P2
2021/05/12 00:00:16;;;;;;;13.30;2.60;;;;;;;14.73;60.52;100811.91;4932713;29;20060;-65
2021/05/12 00:02:44;;;;;;;13.43;2.50;;;;;;;14.84;59.46;100799.22;4933025;29;20052;-63
2021/05/12 00:05:12;;;;;;;14.98;2.78;;;;;;;14.10;58.66;100801.06;4932667;29;20055;-65
2021/05/12 00:07:39;;;;;;;13.38;2.75;;;;;;;14.12;61.76;100801.53;4948895;29;20063;-63
2021/05/12 00:10:10;;;;;;;14.05;2.70;;;;;;;14.37;61.00;100798.63;4951573;28;20059;-65
2021/05/12 00:12:39;;;;;;;11.32;2.72;;;;;;;14.84;59.85;100799.22;4951677;28;20496;-65
2021/05/12 00:15:10;;;;;;;15.93;2.53;;;;;;;14.45;60.03;100796.94;4952170;29;20047;-64
2021/05/12 00:17:38;;;;;;;11.75;2.40;;;;;;;14.57;60.66;100813.66;4951339;28;20056;-65
2021/05/12 00:20:08;;;;;;;16.92;2.30;;;;;;;14.66;60.41;100801.34;4951573;28;20055;-66
2021/05/12 00:22:56;;;;;;;12.60;2.65;;;;;;;14.32;60.11;100800.78;4951712;28;20062;-65
2021/05/12 00:25:24;;;;;;;12.98;2.28;;;;;;;14.42;60.83;100803.16;4955349;28;20055;-64
2021/05/12 00:27:51;;;;;;;13.65;2.58;;;;;;;14.75;60.34;100806.81;4955673;29;20039;-63
2021/05/12 00:30:20;;;;;;;17.35;2.72;;;;;;;14.33;59.11;100805.97;4955941;28;20439;-66
2021/05/12 00:32:48;;;;;;;10.68;2.20;;;;;;;14.15;61.90;100801.69;4954667;28;20043;-64
2021/05/12 00:35:16;;;;;;;16.67;2.97;;;;;;;14.13;61.88;100805.91;4955181;28;20066;-64
2021/05/12 00:37:44;;;;;;;15.75;2.55;;;;;;;14.02;60.56;100797.19;4918193;29;20075;-64
2021/05/12 00:40:13;;;;;;;15.00;2.53;;;;;;;13.68;60.61;100804.84;4935715;29;20063;-63
2021/05/12 00:42:41;;;;;;;15.65;2.53;;;;;;;13.53;61.69;100800.66;4934674;29;20067;-63
2021/05/12 00:45:14;;;;;;;11.75;2.55;;;;;;;13.97;63.67;100799.31;4935647;29;20052;-66
2021/05/12 00:47:41;;;;;;;11.85;2.35;;;;;;;14.29;61.74;100801.47;4942403;29;20380;-63
2021/05/12 00:50:09;;;;;;;14.63;2.08;;;;;;;14.37;59.93;100800.56;4954475;28;20058;-63
2021/05/12 00:52:37;;;;;;;16.73;2.78;;;;;;;14.35;61.09;100803.69;4954342;28;20059;-65
2021/05/12 00:55:05;;;;;;;10.32;2.70;;;;;;;14.11;61.51;100803.50;4955109;28;20047;-66
2021/05/12 00:57:34;;;;;;;14.07;2.88;;;;;;;13.56;60.46;100811.09;4964956;28;20058;-66
2021/05/12 01:00:07;;;;;;;12.18;2.47;;;;;;;14.05;61.55;100798.47;4956176;28;20053;-64
2021/05/12 01:02:35;;;;;;;13.35;2.58;;;;;;;14.10;61.82;100807.41;4972956;28;20078;-65
2021/05/12 01:05:04;;;;;;;20.45;3.33;;;;;;;14.22;61.64;100806.69;4956350;28;20067;-65
2021/05/12 01:07:31;;;;;;;16.70;3.17;;;;;;;13.62;60.54;100806.16;4973753;28;20491;-65
2021/05/12 01:09:59;;;;;;;14.05;2.58;;;;;;;13.89;61.83;100812.09;4973945;28;20050;-64
2021/05/12 01:12:26;;;;;;;13.32;3.00;;;;;;;14.02;61.64;100804.66;4956767;28;20054;-63
2021/05/12 01:14:54;;;;;;;16.00;2.80;;;;;;;13.74;60.47;100806.31;4973785;28;20051;-62
2021/05/12 01:17:21;;;;;;;12.23;2.45;;;;;;;13.63;61.00;100805.84;4973398;28;20055;-65
2021/05/12 01:19:49;;;;;;;14.65;2.40;;;;;;;13.53;63.05;100801.47;4955920;28;20050;-65
2021/05/12 01:22:17;;;;;;;14.38;3.25;;;;;;;13.80;63.59;100804.94;4973821;28;20058;-64
2021/05/12 01:24:44;;;;;;;15.02;2.92;;;;;;;13.61;62.57;100805.38;4956006;28;20059;-63
2021/05/12 01:27:12;;;;;;;14.98;3.08;;;;;;;13.52;63.03;100799.88;4973128;28;20046;-63
2021/05/12 01:29:39;;;;;;;14.30;2.90;;;;;;;13.39;64.86;100800.03;4972622;28;20062;-66
2021/05/12 01:32:07;;;;;;;13.60;2.50;;;;;;;13.54;61.59;100807.84;4972591;28;20054;-65
2021/05/12 01:34:34;;;;;;;15.95;3.65;;;;;;;13.86;62.32;100804.44;4973161;28;20409;-65
2021/05/12 01:37:02;;;;;;;13.07;3.55;;;;;;;13.62;62.38;100803.38;4973151;28;20406;-65
2021/05/12 01:39:29;;;;;;;11.00;2.33;;;;;;;13.52;63.35;100805.41;4972710;28;20080;-62
2021/05/12 01:41:56;;;;;;;18.33;3.20;;;;;;;13.70;62.58;100803.38;4956085;28;20051;-63
2021/05/12 01:44:24;;;;;;;15.80;3.25;;;;;;;14.08;62.79;100797.81;4973600;28;20042;-63
2021/05/12 01:46:51;;;;;;;19.60;3.10;;;;;;;13.70;62.88;100802.56;4955834;28;20065;-64
2021/05/12 01:49:20;;;;;;;12.82;2.80;;;;;;;13.80;63.59;100805.78;4954738;28;20058;-64
2021/05/12 01:51:48;;;;;;;12.90;2.50;;;;;;;13.75;63.03;100800.44;4954870;28;20383;-66
2021/05/12 01:54:15;;;;;;;14.00;2.28;;;;;;;13.74;62.84;100793.25;4972305;28;20055;-64
2021/05/12 01:56:42;;;;;;;13.57;2.53;;;;;;;13.95;63.64;100796.06;4972466;28;20047;-64
2021/05/12 01:59:10;;;;;;;14.40;2.83;;;;;;;13.54;62.62;100792.06;4973236;28;20055;-65
2021/05/12 02:01:38;;;;;;;15.13;2.95;;;;;;;13.31;62.22;100796.19;4956195;28;20058;-66
2021/05/12 02:04:07;;;;;;;15.23;2.70;;;;;;;13.17;63.42;100787.28;4955053;28;20411;-66
2021/05/12 02:06:35;;;;;;;14.65;2.63;;;;;;;13.13;62.20;100788.25;4954521;28;20054;-65
2021/05/12 02:09:06;;;;;;;16.65;2.92;;;;;;;13.40;62.74;100788.69;4955276;28;20053;-64
2021/05/12 02:11:35;;;;;;;14.57;3.00;;;;;;;13.40;64.07;100780.38;4939339;28;20394;-62
2021/05/12 02:14:05;;;;;;;14.57;3.05;;;;;;;12.92;64.02;100781.75;4972324;28;20058;-64
2021/05/12 02:16:36;;;;;;;12.18;2.72;;;;;;;13.04;65.51;100777.19;4972597;28;20058;-64
2021/05/12 02:19:04;;;;;;;19.70;2.72;;;;;;;12.76;64.99;100778.66;4955066;28;20054;-65
2021/05/12 02:21:32;;;;;;;13.88;2.53;;;;;;;12.75;65.42;100779.00;4972803;28;20055;-63
2021/05/12 02:24:00;;;;;;;17.77;2.83;;;;;;;12.88;65.50;100780.78;4973115;28;20051;-62
2021/05/12 02:26:27;;;;;;;13.68;2.80;;;;;;;12.72;64.68;100776.88;4971762;28;20046;-63
2021/05/12 02:28:57;;;;;;;14.52;2.78;;;;;;;12.52;64.54;100772.03;4972422;28;20061;-64
2021/05/12 02:31:24;;;;;;;18.33;3.20;;;;;;;12.37;66.17;100771.38;4971556;28;20059;-66
2021/05/12 02:33:52;;;;;;;17.77;2.97;;;;;;;12.92;65.10;100768.72;4972180;28;20302;-63
2021/05/12 02:36:19;;;;;;;15.90;3.33;;;;;;;13.21;65.03;100773.59;4939305;28;20046;-64
2021/05/12 02:38:46;;;;;;;19.65;3.15;;;;;;;13.44;64.63;100763.94;4972445;28;20054;-64
2021/05/12 02:41:14;;;;;;;16.83;3.50;;;;;;;13.38;63.51;100777.13;4938437;28;20064;-65
2021/05/12 02:43:41;;;;;;;15.75;3.45;;;;;;;12.83;63.68;100770.69;4954470;28;20065;-65
2021/05/12 02:46:09;;;;;;;13.52;2.65;;;;;;;12.87;64.87;100773.63;4971395;28;20050;-65
2021/05/12 02:48:36;;;;;;;13.93;2.75;;;;;;;13.37;64.00;100774.69;4971832;28;20051;-64
2021/05/12 02:51:04;;;;;;;18.33;3.35;;;;;;;13.41;62.50;100772.88;4971659;28;20054;-63
2021/05/12 02:53:31;;;;;;;12.95;2.90;;;;;;;12.90;64.11;100770.22;4938549;28;20046;-64
2021/05/12 02:55:59;;;;;;;15.00;2.75;;;;;;;12.85;63.78;100768.41;4988232;28;20050;-64
2021/05/12 02:58:26;;;;;;;12.52;2.50;;;;;;;12.57;62.54;100777.38;4974290;28;20405;-64
2021/05/12 03:00:54;;;;;;;14.90;3.00;;;;;;;12.92;65.64;100771.50;4990264;28;20160;-64
2021/05/12 03:03:21;;;;;;;19.13;3.42;;;;;;;12.67;64.96;100769.59;4990396;28;20426;-64
2021/05/12 03:05:48;;;;;;;11.75;2.33;;;;;;;13.34;64.94;100769.78;4978046;28;20051;-62
2021/05/12 03:08:16;;;;;;;21.15;3.22;;;;;;;13.06;62.58;100768.56;4954209;28;20050;-64
2021/05/12 03:10:44;;;;;;;14.57;3.05;;;;;;;13.11;63.15;100771.19;4971289;28;20051;-64
2021/05/12 03:13:12;;;;;;;12.18;2.95;;;;;;;13.31;64.87;100764.94;4954314;28;20054;-64
2021/05/12 03:15:40;;;;;;;12.18;2.42;;;;;;;13.37;64.32;100764.41;4971617;28;20054;-62
2021/05/12 03:18:08;;;;;;;16.42;3.33;;;;;;;13.28;64.63;100760.88;4971962;28;20055;-63
2021/05/12 03:20:35;;;;;;;15.38;3.65;;;;;;;13.34;64.40;100759.56;4954402;28;20176;-65
2021/05/12 03:23:05;;;;;;;11.52;3.33;;;;;;;13.24;63.04;100770.97;4972012;28;20050;-64
2021/05/12 03:25:33;;;;;;;13.18;2.90;;;;;;;13.05;63.50;100762.25;4971495;28;20058;-64
2021/05/12 03:28:01;;;;;;;16.92;2.90;;;;;;;12.69;63.29;100756.25;4971372;28;20051;-64
2021/05/12 03:30:36;;;;;;;18.10;3.67;;;;;;;12.49;63.70;100759.66;4954059;28;20057;-64
2021/05/12 03:33:08;;;;;;;17.92;2.83;;;;;;;13.12;66.50;100759.78;4971671;28;20395;-64
2021/05/12 03:35:37;;;;;;;18.92;3.05;;;;;;;13.40;64.15;100752.72;4950122;29;20047;-64
2021/05/12 03:38:05;;;;;;;16.27;3.33;;;;;;;13.22;64.79;100759.44;4935816;29;20514;-64
2021/05/12 03:40:32;;;;;;;16.48;2.85;;;;;;;13.48;63.12;100757.38;4935066;29;20063;-64
2021/05/12 03:43:00;;;;;;;15.55;2.88;;;;;;;13.10;62.16;100756.53;4952228;29;20492;-65
2021/05/12 03:45:28;;;;;;;13.43;2.88;;;;;;;13.61;63.79;100755.53;4935086;29;20066;-63
2021/05/12 03:47:56;;;;;;;14.55;2.83;;;;;;;13.14;61.85;100762.22;4952044;28;20058;-66
2021/05/12 03:50:25;;;;;;;14.27;3.35;;;;;;;12.76;63.17;100756.53;4919247;29;20059;-63
2021/05/12 03:52:53;;;;;;;16.10;3.38;;;;;;;12.93;65.16;100747.44;4951876;29;20067;-64
2021/05/12 03:55:23;;;;;;;19.75;3.47;;;;;;;12.19;64.30;100763.38;4935036;29;20055;-63
2021/05/12 03:57:50;;;;;;;18.48;3.30;;;;;;;12.76;65.93;100759.31;4954161;28;20051;-65
2021/05/12 04:00:19;;;;;;;17.27;3.67;;;;;;;12.42;63.62;100756.56;4956313;29;20047;-65
2021/05/12 04:02:46;;;;;;;15.15;3.50;;;;;;;12.31;67.30;100764.38;4955500;29;20062;-65
2021/05/12 04:05:15;;;;;;;18.05;3.15;;;;;;;11.96;63.81;100759.91;4962891;28;20051;-65
2021/05/12 04:07:50;;;;;;;18.02;3.50;;;;;;;11.63;65.09;100760.63;4975402;28;20405;-64
2021/05/12 04:10:19;;;;;;;14.00;2.95;;;;;;;11.46;65.74;100766.88;4974812;28;20058;-66
2021/05/12 04:12:47;;;;;;;16.98;3.50;;;;;;;11.37;65.99;100770.75;4957600;28;20387;-64
2021/05/12 04:15:15;;;;;;;17.23;3.20;;;;;;;10.85;67.41;100775.13;4975695;28;20055;-63
2021/05/12 04:17:43;;;;;;;20.63;3.30;;;;;;;10.94;67.44;100771.31;4958775;28;20502;-63
2021/05/12 04:20:14;;;;;;;25.55;3.65;;;;;;;11.19;66.91;100773.38;4974239;28;20068;-65
2021/05/12 04:22:43;;;;;;;21.48;3.45;;;;;;;11.02;67.52;100777.97;4974697;28;20212;-65
2021/05/12 04:25:18;;;;;;;14.50;3.08;;;;;;;11.00;67.56;100783.81;4974746;28;20046;-67
2021/05/12 04:27:47;;;;;;;20.05;3.28;;;;;;;10.82;68.43;100782.09;4957828;28;20047;-66
2021/05/12 04:30:17;;;;;;;15.77;3.25;;;;;;;11.13;67.22;100780.19;4958307;28;20396;-65
2021/05/12 04:32:45;;;;;;;;;;;;;;;11.08;67.48;100782.25;4975195;28;20399;-62
2021/05/12 04:35:14;;;;;;;13.85;2.78;;;;;;;11.21;66.57;100779.41;4974423;28;19933;-66
2021/05/12 04:37:42;;;;;;;21.15;3.97;;;;;;;11.27;67.62;100780.91;4956690;28;20600;-66
2021/05/12 04:40:09;;;;;;;17.92;3.65;;;;;;;11.25;67.31;100782.34;4956320;28;20055;-66
2021/05/12 04:42:37;;;;;;;15.65;2.90;;;;;;;11.75;69.96;100780.97;4973693;28;20074;-65
2021/05/12 04:45:07;;;;;;;17.45;2.75;;;;;;;11.70;68.71;100783.09;4974387;28;20058;-65
2021/05/12 04:47:34;;;;;;;19.05;3.50;;;;;;;12.03;66.92;100776.03;4974290;28;20059;-67
2021/05/12 04:50:05;;;;;;;14.13;3.03;;;;;;;12.24;68.17;100777.03;4974394;28;20060;-64
2021/05/12 04:52:32;;;;;;;20.73;3.75;;;;;;;12.27;68.02;100771.66;4974655;28;20070;-66
2021/05/12 04:54:59;;;;;;;20.02;3.00;;;;;;;12.08;65.30;100770.34;4973643;28;20398;-63
2021/05/12 04:57:27;;;;;;;20.30;3.83;;;;;;;12.36;67.17;100766.19;4956041;28;20051;-64
2021/05/12 04:59:54;;;;;;;20.17;4.47;;;;;;;12.09;67.19;100761.75;4957062;28;20062;-64
2021/05/12 05:02:22;;;;;;;20.67;3.70;;;;;;;12.28;65.93;100761.44;4973625;28;20050;-65
2021/05/12 05:04:52;;;;;;;14.38;3.10;;;;;;;12.55;67.29;100761.13;4973535;28;20059;-66
2021/05/12 05:07:19;;;;;;;19.08;2.97;;;;;;;12.57;64.37;100756.06;4974497;28;20055;-65
2021/05/12 05:09:47;;;;;;;15.75;3.40;;;;;;;12.33;64.72;100767.63;4972370;28;20050;-64
2021/05/12 05:12:15;;;;;;;15.35;3.13;;;;;;;12.17;63.92;100763.69;4973603;28;20051;-64
2021/05/12 05:14:42;;;;;;;17.52;3.55;;;;;;;12.29;64.98;100768.59;4973477;28;20082;-66
2021/05/12 05:17:11;;;;;;;18.13;3.47;;;;;;;12.03;64.90;100774.06;4973805;28;20047;-66
2021/05/12 05:19:38;;;;;;;21.27;3.63;;;;;;;12.20;65.63;100763.03;4956022;28;20495;-68
2021/05/12 05:22:11;;;;;;;18.38;3.00;;;;;;;12.07;66.91;100768.72;4972845;28;20053;-66
2021/05/12 05:24:39;;;;;;;17.38;3.15;;;;;;;12.45;64.37;100778.84;4973580;28;20043;-66
2021/05/12 05:27:07;;;;;;;18.60;3.50;;;;;;;12.02;64.85;100777.97;4940527;28;20488;-66
2021/05/12 05:29:34;;;;;;;20.13;3.97;;;;;;;11.76;65.48;100779.03;4972817;28;20047;-63
2021/05/12 05:32:02;;;;;;;20.45;3.45;;;;;;;11.86;65.89;100775.97;4973262;28;20054;-65
2021/05/12 05:34:48;;;;;;;19.02;3.55;;;;;;;11.98;66.50;100773.41;4972775;28;20063;-67
2021/05/12 05:37:35;;;;;;;17.52;3.63;;;;;;;11.76;66.04;100774.31;4972928;28;20051;-63
2021/05/12 05:40:21;;;;;;;18.27;3.30;;;;;;;11.68;68.21;100771.53;4956102;28;20498;-66
2021/05/12 05:43:09;;;;;;;18.48;3.10;;;;;;;12.02;65.03;100766.94;4973901;28;20054;-66
2021/05/12 05:45:55;;;;;;;16.98;3.25;;;;;;;11.74;66.03;100775.78;4958821;28;20054;-66
2021/05/12 05:48:41;;;;;;;19.30;3.92;;;;;;;11.40;66.10;100783.88;4958535;28;20058;-66
2021/05/12 05:51:43;;;;;;;22.52;3.90;;;;;;;11.65;68.85;100784.00;4894026;29;20433;-64
2021/05/12 05:54:30;;;;;;;27.05;4.22;;;;;;;11.89;66.96;100778.09;4893065;29;20059;-66
2021/05/12 05:57:16;;;;;;;23.42;3.88;;;;;;;12.03;65.12;100778.78;4894339;29;20140;-65
2021/05/12 06:00:05;;;;;;;15.30;3.50;;;;;;;12.14;66.32;100780.91;4887370;29;20390;-65
2021/05/12 06:02:46;;;;;;;17.52;3.78;;;;;;;12.16;68.45;100778.66;4875791;29;20049;-63
2021/05/12 06:05:32;;;;;;;15.68;3.50;;;;;;;12.17;65.82;100777.50;4880786;29;20057;-64
2021/05/12 06:08:18;;;;;;;23.40;4.20;;;;;;;12.48;69.14;100777.41;4894079;29;20631;-63
2021/05/12 06:11:09;;;;;;;25.00;4.05;;;;;;;12.62;69.45;100782.75;4864368;29;20061;-64
2021/05/12 06:13:55;;;;;;;20.02;4.20;;;;;;;12.60;65.84;100773.97;4856985;29;20088;-63
2021/05/12 06:16:41;;;;;;;16.13;3.58;;;;;;;12.85;73.00;100776.72;4856555;29;20538;-65
2021/05/12 06:19:27;;;;;;;19.52;3.42;;;;;;;13.13;70.89;100774.41;4874262;29;20410;-64
2021/05/12 06:22:13;;;;;;;20.05;4.38;;;;;;;13.49;69.23;100777.56;4867995;29;20419;-65
2021/05/12 06:24:59;;;;;;;17.38;3.78;;;;;;;13.32;67.25;100772.91;4871823;29;20061;-65
2021/05/12 06:27:45;;;;;;;16.23;3.58;;;;;;;13.50;65.28;100773.66;4879159;29;20097;-67
2021/05/12 06:30:31;;;;;;;21.55;4.50;;;;;;;13.26;68.75;100777.00;4881641;29;20513;-65
2021/05/12 06:33:18;;;;;;;24.65;4.40;;;;;;;13.94;71.57;100777.84;4874866;29;20057;-66
2021/05/12 06:36:05;;;;;;;23.27;4.13;;;;;;;13.93;65.35;100770.69;4879593;29;20053;-69
2021/05/12 06:38:53;;;;;;;23.02;3.90;;;;;;;14.23;69.72;100769.50;4877725;29;20056;-67
2021/05/12 06:41:20;;;;;;;20.17;4.38;;;;;;;13.72;67.32;100772.59;4876892;29;20379;-64
2021/05/12 06:43:49;;;;;;;19.73;3.55;;;;;;;13.67;65.79;100767.25;4874842;29;20766;-66
2021/05/12 06:46:17;;;;;;;18.63;3.73;;;;;;;13.72;68.05;100759.53;4882117;29;20397;-70
2021/05/12 06:48:44;;;;;;;20.98;4.80;;;;;;;13.51;62.07;100761.47;4924063;28;20097;-66
2021/05/12 06:51:13;;;;;;;20.27;4.10;;;;;;;13.68;65.93;100764.16;4969461;28;20051;-65
2021/05/12 06:53:40;;;;;;;20.52;4.28;;;;;;;13.43;64.51;100762.28;4957398;28;20081;-67
2021/05/12 06:56:08;;;;;;;25.90;7.47;;;;;;;13.91;67.22;100761.91;4968786;28;20414;-66
2021/05/12 06:58:38;;;;;;;15.52;3.63;;;;;;;14.07;67.98;100757.41;4959885;28;20584;-69
2021/05/12 07:01:06;;;;;;;20.35;3.63;;;;;;;14.42;65.75;100762.41;4968722;28;20054;-66
2021/05/12 07:03:33;;;;;;;17.30;3.65;;;;;;;14.55;66.57;100761.31;4968322;28;20065;-67
2021/05/12 07:06:02;;;;;;;24.40;4.15;;;;;;;14.40;63.38;100759.16;4968316;28;20054;-65
2021/05/12 07:08:29;;;;;;;15.70;3.63;;;;;;;14.54;61.27;100756.91;4955926;28;20053;-64
2021/05/12 07:10:58;;;;;;;18.33;3.83;;;;;;;14.61;65.28;100757.19;4968976;28;20046;-68
2021/05/12 07:13:25;;;;;;;19.15;3.50;;;;;;;14.55;63.87;100752.19;4958713;28;20061;-65
2021/05/12 07:15:53;;;;;;;18.45;2.72;;;;;;;14.57;62.90;100756.22;4968583;28;20489;-66
2021/05/12 07:18:20;;;;;;;20.92;4.00;;;;;;;14.72;62.28;100756.75;4968466;28;20592;-67
2021/05/12 07:20:48;;;;;;;21.42;3.92;;;;;;;14.68;60.28;100747.53;4967871;28;20042;-65
2021/05/12 07:23:22;;;;;;;31.27;9.45;;;;;;;14.72;60.49;100757.59;4957012;28;20051;-66
2021/05/12 07:25:50;;;;;;;17.80;5.15;;;;;;;14.99;60.02;100756.19;4967691;28;20066;-67
2021/05/12 07:28:19;;;;;;;20.33;4.47;;;;;;;14.95;58.48;100747.75;4957101;28;20055;-66
2021/05/12 07:30:47;;;;;;;16.40;3.47;;;;;;;15.27;59.16;100744.09;4957314;28;20444;-65
2021/05/12 07:33:36;;;;;;;23.20;3.97;;;;;;;15.19;58.19;100746.97;4959493;28;20379;-63
2021/05/12 07:36:07;;;;;;;16.85;3.40;;;;;;;15.20;57.73;100749.41;4962206;28;20483;-67
2021/05/12 07:38:34;;;;;;;19.13;4.03;;;;;;;15.48;56.31;100744.09;4971772;28;20053;-66
2021/05/12 07:41:03;;;;;;;21.95;3.60;;;;;;;15.56;57.00;100740.38;4961736;28;20487;-64
2021/05/12 07:43:31;;;;;;;19.40;4.38;;;;;;;15.55;57.42;100749.88;4962592;28;20069;-67
2021/05/12 07:46:00;;;;;;;22.55;4.00;;;;;;;15.36;55.87;100742.06;4972128;28;20047;-64
2021/05/12 07:48:29;;;;;;;17.25;4.28;;;;;;;15.63;56.83;100744.22;4971654;28;20479;-65
2021/05/12 07:50:57;;;;;;;20.67;4.03;;;;;;;15.63;56.71;100740.63;4971859;28;20081;-64
2021/05/12 07:53:25;;;;;;;17.60;3.72;;;;;;;15.87;54.93;100729.50;4971192;28;20491;-67
2021/05/12 07:55:52;;;;;;;16.33;3.53;;;;;;;15.88;53.85;100727.53;4971199;28;20055;-65
2021/05/12 07:58:20;;;;;;;17.52;4.00;;;;;;;15.89;55.12;100729.97;4970865;28;20399;-66
2021/05/12 08:00:48;;;;;;;22.17;3.60;;;;;;;15.97;54.44;100728.22;4968642;28;20050;-65
2021/05/12 08:03:15;;;;;;;19.98;3.83;;;;;;;16.03;53.41;100730.41;4970917;28;20395;-66
2021/05/12 08:05:43;;;;;;;16.55;4.10;;;;;;;15.79;54.62;100725.66;4969704;28;20051;-64
2021/05/12 08:08:10;;;;;;;23.77;3.55;;;;;;;16.07;53.40;100723.00;4970258;28;20038;-66
2021/05/12 08:10:39;;;;;;;23.40;3.95;;;;;;;16.10;51.97;100713.16;4956424;28;20055;-66
2021/05/12 08:13:07;;;;;;;16.77;3.58;;;;;;;16.14;52.22;100719.63;4957735;28;20046;-66
2021/05/12 08:15:34;;;;;;;18.02;3.40;;;;;;;16.27;52.29;100715.66;4957159;28;21414;-65
2021/05/12 08:18:02;;;;;;;15.63;3.78;;;;;;;16.17;51.93;100716.13;4968559;28;20042;-68
2021/05/12 08:20:31;;;;;;;18.40;3.25;;;;;;;16.28;51.33;100714.50;4970490;28;20422;-64
2021/05/12 08:22:59;;;;;;;18.15;3.55;;;;;;;16.32;51.66;100713.44;4968821;28;20074;-66
2021/05/12 08:25:26;;;;;;;18.10;3.28;;;;;;;16.65;50.84;100700.13;4972114;28;20043;-67
2021/05/12 08:27:55;;;;;;;17.05;2.95;;;;;;;16.37;50.39;100704.06;4965611;28;20062;-63
2021/05/12 08:30:24;;;;;;;23.73;3.20;;;;;;;16.71;48.95;100704.28;4952211;28;20403;-66
2021/05/12 08:32:55;;;;;;;14.98;2.85;;;;;;;16.54;48.36;100707.38;4959741;28;20051;-66
2021/05/12 08:35:23;;;;;;;14.73;2.80;;;;;;;16.80;48.85;100701.34;4959494;28;20494;-65
2021/05/12 08:37:52;;;;;;;16.38;3.08;;;;;;;16.60;47.32;100692.06;4942022;28;20069;-66
2021/05/12 08:40:20;;;;;;;16.33;3.10;;;;;;;16.83;47.27;100700.63;4971892;28;20060;-65
2021/05/12 08:42:53;;;;;;;12.27;2.95;;;;;;;16.27;47.27;100707.31;4954363;28;20495;-65
2021/05/12 08:45:22;;;;;;;14.57;3.40;;;;;;;16.30;47.53;100712.19;4957268;28;20042;-65
2021/05/12 08:47:54;;;;;;;11.68;3.00;;;;;;;16.62;47.78;100694.47;4941591;28;20054;-65
2021/05/12 08:50:26;;;;;;;12.50;3.20;;;;;;;16.77;46.15;100702.06;4969989;28;20057;-64
2021/05/12 08:52:53;;;;;;;13.57;3.20;;;;;;;16.86;46.81;100699.91;4955226;28;20432;-69
2021/05/12 08:55:21;;;;;;;29.33;3.05;;;;;;;17.00;47.55;100694.75;4942079;28;20050;-66
2021/05/12 08:57:50;;;;;;;14.00;3.55;;;;;;;16.80;46.84;100696.59;4967154;28;20448;-65
2021/05/12 09:00:18;;;;;;;14.98;3.70;;;;;;;16.88;47.38;100688.47;4969060;28;20058;-65
2021/05/12 09:02:46;;;;;;;21.45;5.32;;;;;;;16.71;47.19;100686.78;4970194;28;20074;-65
2021/05/12 09:05:13;;;;;;;34.53;12.52;;;;;;;16.98;47.87;100691.50;4954338;28;20050;-65
2021/05/12 09:07:41;;;;;;;20.30;3.40;;;;;;;16.93;47.17;100682.63;4955395;28;20054;-65
2021/05/12 09:10:10;;;;;;;19.38;3.95;;;;;;;16.84;47.58;100691.16;4952682;28;20057;-65
2021/05/12 09:12:42;;;;;;;15.20;3.00;;;;;;;16.82;46.85;100682.34;4967096;28;20064;-67
2021/05/12 09:15:12;;;;;;;16.65;4.10;;;;;;;16.76;45.57;100679.00;4968884;28;20054;-69
2021/05/12 09:17:41;;;;;;;17.30;4.10;;;;;;;16.80;45.72;100673.53;4968051;28;20380;-67
2021/05/12 09:20:21;;;;;;;14.38;3.45;;;;;;;17.05;46.75;100675.00;4969398;28;20047;-66
2021/05/12 09:23:03;;;;;;;11.63;3.03;;;;;;;16.85;47.41;100670.50;4966805;28;20059;-65
2021/05/12 09:25:32;;;;;;;18.73;3.17;;;;;;;16.87;47.22;100662.59;4967726;28;20058;-65
2021/05/12 09:28:17;;;;;;;15.57;3.33;;;;;;;17.04;47.45;100651.13;4969013;28;20050;-69
2021/05/12 09:31:02;;;;;;;13.05;2.70;;;;;;;17.23;46.29;100661.53;4971436;28;20564;-63
2021/05/12 09:33:31;;;;;;;16.30;3.13;;;;;;;17.33;45.83;100661.03;4969894;28;20058;-64
2021/05/12 09:35:59;;;;;;;24.33;3.80;;;;;;;17.34;45.38;100657.88;4958499;28;20055;-67
2021/05/12 09:38:31;;;;;;;12.95;3.10;;;;;;;17.43;44.79;100660.47;4970559;28;20302;-67
2021/05/12 09:41:12;;;;;;;14.75;3.25;;;;;;;17.49;44.17;100650.69;4957399;28;20054;-68
2021/05/12 09:43:51;;;;;;;14.38;2.92;;;;;;;17.57;44.62;100644.91;4961798;28;20102;-70
2021/05/12 09:46:20;;;;;;;22.80;4.45;;;;;;;17.46;44.97;100641.09;4963033;28;20047;-69
2021/05/12 09:48:59;;;;;;;18.90;3.25;;;;;;;17.07;44.39;100644.84;4968628;28;20062;-71
2021/05/12 09:51:28;;;;;;;17.93;3.10;;;;;;;17.00;45.34;100638.28;4959279;28;20077;-68
2021/05/12 09:54:03;;;;;;;20.08;3.35;;;;;;;16.98;43.90;100644.19;4968195;28;20781;-68
2021/05/12 09:56:41;;;;;;;13.80;2.67;;;;;;;17.24;43.70;100638.94;4967514;28;21257;-68
2021/05/12 09:59:20;;;;;;;17.95;3.45;;;;;;;16.97;44.18;100634.25;4968341;28;20070;-67
2021/05/12 10:01:50;;;;;;;11.02;2.78;;;;;;;17.37;45.31;100637.66;4969466;28;20051;-70
2021/05/12 10:04:31;;;;;;;15.85;4.18;;;;;;;17.78;43.18;100625.91;4969127;28;20050;-68
2021/05/12 10:07:19;;;;;;;12.55;3.40;;;;;;;17.96;44.30;100629.91;4967808;28;20050;-68
2021/05/12 10:09:54;;;;;;;11.88;2.83;;;;;;;17.80;41.96;100628.38;4968457;28;20585;-70
2021/05/12 10:12:23;;;;;;;12.63;2.92;;;;;;;18.31;43.56;100623.47;4967323;28;20043;-70
2021/05/12 10:14:53;;;;;;;15.48;3.53;;;;;;;18.14;41.79;100626.69;4969104;28;20062;-67
2021/05/12 10:17:21;;;;;;;16.40;3.30;;;;;;;17.87;41.69;100620.94;4953093;28;20420;-66
2021/05/12 10:19:54;;;;;;;17.65;2.78;;;;;;;17.87;43.48;100617.34;4955290;28;20059;-67
2021/05/12 10:22:22;;;;;;;12.77;3.00;;;;;;;17.96;43.19;100615.97;4969244;28;20077;-68
2021/05/12 10:24:52;;;;;;;13.45;3.33;;;;;;;17.87;43.28;100611.78;4968037;28;20051;-67
2021/05/12 10:27:27;;;;;;;12.73;3.28;;;;;;;18.03;42.89;100604.16;4966831;28;20043;-66
2021/05/12 10:29:56;;;;;;;13.02;2.80;;;;;;;17.87;41.67;100614.56;4958953;28;20066;-66
2021/05/12 10:32:29;;;;;;;13.07;2.75;;;;;;;17.78;43.51;100608.41;4954828;28;20062;-69
2021/05/12 10:35:05;;;;;;;13.77;2.67;;;;;;;17.73;42.62;100609.47;4960436;28;20062;-67
2021/05/12 10:37:46;;;;;;;13.20;2.78;;;;;;;17.70;42.34;100601.88;4965678;28;20487;-64
2021/05/12 10:40:23;;;;;;;15.50;2.85;;;;;;;17.61;42.83;100592.91;4942412;28;20058;-68
2021/05/12 10:43:06;;;;;;;18.52;3.63;;;;;;;17.47;44.87;100592.56;4968817;28;20058;-67
2021/05/12 10:45:51;;;;;;;16.63;3.65;;;;;;;17.69;43.87;100594.69;4967957;28;20050;-65
2021/05/12 10:48:50;;;;;;;16.50;2.88;;;;;;;17.51;43.25;100587.91;4968460;28;20061;-65
2021/05/12 10:51:31;;;;;;;12.63;2.47;;;;;;;17.69;45.00;100586.34;4969284;28;20527;-65
2021/05/12 10:54:03;;;;;;;12.40;2.55;;;;;;;17.71;42.68;100586.75;4965557;28;20038;-67
2021/05/12 10:56:35;;;;;;;15.38;3.00;;;;;;;18.04;44.23;100582.69;4939544;28;21315;-69
2021/05/12 10:59:04;;;;;;;11.15;3.25;;;;;;;18.11;43.69;100580.03;4968671;28;20426;-67
2021/05/12 11:01:51;;;;;;;12.00;2.38;;;;;;;18.34;41.55;100587.28;4967777;28;20057;-68
2021/05/12 11:04:23;;;;;;;11.20;2.90;;;;;;;18.16;41.48;100577.78;4957137;28;20057;-64
2021/05/12 11:06:51;;;;;;;11.55;2.72;;;;;;;18.18;43.15;100582.97;4955463;28;20418;-65
2021/05/12 11:09:22;;;;;;;;;;;;;;;18.28;42.91;100580.41;4965919;28;20065;-67
2021/05/12 11:11:59;;;;;;;11.48;2.95;;;;;;;18.25;40.66;100572.78;4952703;28;19930;-65
2021/05/12 11:14:31;;;;;;;8.43;2.20;;;;;;;18.18;42.63;100572.66;4967507;28;20066;-66
2021/05/12 11:17:12;;;;;;;9.25;1.98;;;;;;;18.30;42.34;100566.09;4967444;28;20058;-69
2021/05/12 11:19:43;;;;;;;18.00;4.47;;;;;;;18.40;43.67;100565.47;4957505;28;20054;-68
2021/05/12 11:33:33;;;;;;;13.95;2.95;;;;;;;18.09;43.33;100569.25;4953830;28;20054;-68
2021/05/12 11:36:07;;;;;;;16.98;2.70;;;;;;;18.19;43.34;100563.09;4967503;28;20054;-67
2021/05/12 11:38:36;;;;;;;14.77;2.75;;;;;;;18.19;42.67;100557.50;4966985;28;20047;-67
2021/05/12 11:41:14;;;;;;;11.30;2.85;;;;;;;18.34;42.53;100550.25;4965030;28;20511;-64
2021/05/12 11:43:50;;;;;;;11.98;2.10;;;;;;;18.12;42.65;100551.78;4966722;28;20050;-65
2021/05/12 11:46:25;;;;;;;12.98;2.33;;;;;;;18.68;42.30;100554.88;4967222;28;20054;-67